[Jeden Donnerstag | 18:00z - 20:00z| EDDS] Stuttgart Thursday

Zu Eventkalender hinzugefügt: 53 Daten

Jan Hergeth

1419731
RG Frankfurt - Leitung
RG Frankfurt - Mentor
In weniger als 2h ist wieder Stuttgart Donnerstag! Wir freuen uns bei interessantem Wetter auf euch! :)
EDDS 271522Z 2715/2812 16011KT 9999 SCT020 BKN030 BECMG 2715/2717 23015G25KT TEMPO 2715/2721 2500 SNRA OVC008 PROB40 TEMPO 2715/2716 0500 SN BKN004 BECMG 2717/2719 25020G35KT PROB40 TEMPO 2718/2723 29025G45KT 1400 BLSN BKN004 BECMG 2723/2802 26010KT
 

Lukas Ewald

984980
Stuttgart ist für den Ansturm heute bestens gerüstet! Von DEL über F_APP bis zum CTR sind wir komplett vertreten.
Freut euch auf abwechslungsreichen Verkehr - dank der ->VFR Landpartie<- kommt es ganz sicher zu einer spannenden Mischung aus IFR und VFR, schnellem und langsamen Fliegern sowie Helikoptern und Jets.

Fürs Dickblech bietet sich, wie quasi jeden Donnerstag, der ->Hamburg Thursday<- an. Die LHA spuckt u.A. folgende Routen aus:

Code:
EDDS-EDDH OKIBA N851 RIMKI DCT LOHRE UN851 KEMAD P605 NOLGO (FL245-FL500)
EDDH-EDDS IDEKO N850 WRB UL126 OSBIT P605 TOSTU T726 LBU (FL245-FL500)
Wer es lieber (ultra) kurz mag, für den gibt es auch ATC auf der Strecke von und nach Frankfurt, München und Zürich.


Ich denke die ganze Crew freut sich auf euren Besuch!


Achja... hier noch das obligatorische METAR+TAF

Code:
METAR:
EDDS 190750Z VRB01KT CAVOK 10/07 Q1025 NOSIG

TAF:
EDDS 190500Z 1906/2006 VRB03KT CAVOK PROB30
TEMPO 1906/1908 3000 BR
BECMG 1911/1913 36005KT
BECMG 1919/1921 VRB03KT
 
Zuletzt bearbeitet:

Jan Hergeth

1419731
RG Frankfurt - Leitung
RG Frankfurt - Mentor
In weniger als einer Stunde freuen wir uns beim Stuttgart Donnerstag wieder auf Euren Besuch. Schnappt euch die Flieger und auf nach Stuttgart!:)
 

Jan Hergeth

1419731
RG Frankfurt - Leitung
RG Frankfurt - Mentor
Bei herrlichem Wetter bieten wir in Stuttgart (trotz der eigentlich geschlossenen Piste ;)) wieder vollen ATC! Zudem zeigt Jan Fries bei seinem APP CPT, dass er den Stuttgarter Luftraum unter Kontrolle hat :)
Das Wetter bleibt heute Abend freundlich:
EDDS 091100Z 0912/1012 VRB03KT CAVOK BECMG 0912/0914 01006KT BECMG 0917/0919 VRB02KT
 

Jan Hergeth

1419731
RG Frankfurt - Leitung
RG Frankfurt - Mentor
Der StuDo beginnt in etwas weniger als 4h und wir freuen uns schon jetzt auf euren Besuch in Stuttgart :)
Das Wetter bleibt den gesamten Abend lang freundlich ;)
EDDS 071100Z 0712/0812 08005KT CAVOK BECMG 0719/0721 VRB02KT
 

Jan Hergeth

1419731
RG Frankfurt - Leitung
RG Frankfurt - Mentor
Wir erwarten euch heute wieder beim Stuttgart Donnerstag mit voller Besetzung und der Rennstrecke EDDS-LSGG im Rahmen des "Minors on Stage" Events :)
 

Jan Hergeth

1419731
RG Frankfurt - Leitung
RG Frankfurt - Mentor
Auch am letzten Donnerstag im Mai ist Stuttgart heute für Euch geöffnet! Wir freuen uns auf euren Besuch in EDDS!:)
 

Jan Hergeth

1419731
RG Frankfurt - Leitung
RG Frankfurt - Mentor
Heute ist wieder StuDo ;) Ab 2000lcl erwarten wir euch in EDDS :)
Das Wetter wird interessant :D
EDDS 041100Z 0412/0512 21008KT 9999 SCT020 TEMPO 0412/0422 4000 SHRA BKN020CB PROB30 TEMPO 0414/0418 25020G30KT 2500 TSRAGR BKN008 BECMG 0419/0421 27006KT PROB30 TEMPO
 

Jan Hergeth

1419731
RG Frankfurt - Leitung
RG Frankfurt - Mentor
Es ist schon wieder Donnerstag und die Stuttgarter Crew wartet mit voller Besetzung auf euren Besuch in EDDS! :) Da es der zweite Donnerstag im Juni ist, findet außerdem das "Minors on Stage" Event statt, bei dem ihr die Strecke EDDS-LSGG mit voller ATC-Abdeckung genießen könnt.
Zudem stellt @Jakob Hollmann heute bei seinem APP-CPT sein Können unter Beweis.
Das Wetter bleibt heute bis auf einige Wolken schön:
EDDS 111100Z 1112/1212 VRB03KT 9999 BKN012 BECMG 1112/1114 BKN015 PROB30
 
Oben